sensor_id;sensor_type;location;lat;lon;timestamp;P1;durP1;ratioP1;P2;durP2;ratioP2
61685;SDS011;47592;45.904;8.978;2023-06-14T00:01:33;8.93;;;6.55;;
61685;SDS011;47592;45.904;8.978;2023-06-14T00:04:00;9.15;;;7.00;;
61685;SDS011;47592;45.904;8.978;2023-06-14T00:06:26;9.18;;;7.13;;
61685;SDS011;47592;45.904;8.978;2023-06-14T00:08:51;9.45;;;7.40;;
61685;SDS011;47592;45.904;8.978;2023-06-14T00:11:16;9.73;;;6.77;;
61685;SDS011;47592;45.904;8.978;2023-06-14T00:13:44;10.98;;;7.35;;
61685;SDS011;47592;45.904;8.978;2023-06-14T00:16:14;10.40;;;7.60;;
61685;SDS011;47592;45.904;8.978;2023-06-14T00:18:42;10.80;;;8.18;;
61685;SDS011;47592;45.904;8.978;2023-06-14T00:21:07;10.87;;;8.00;;
61685;SDS011;47592;45.904;8.978;2023-06-14T00:23:35;10.73;;;7.95;;
61685;SDS011;47592;45.904;8.978;2023-06-14T00:26:00;9.47;;;7.43;;
61685;SDS011;47592;45.904;8.978;2023-06-14T00:28:25;9.80;;;7.63;;
61685;SDS011;47592;45.904;8.978;2023-06-14T00:30:53;10.37;;;8.03;;
61685;SDS011;47592;45.904;8.978;2023-06-14T00:33:18;10.40;;;7.07;;
61685;SDS011;47592;45.904;8.978;2023-06-14T00:35:44;9.32;;;7.22;;
61685;SDS011;47592;45.904;8.978;2023-06-14T00:38:12;10.25;;;6.88;;
61685;SDS011;47592;45.904;8.978;2023-06-14T00:40:37;9.52;;;7.25;;
61685;SDS011;47592;45.904;8.978;2023-06-14T00:43:02;8.83;;;6.83;;
61685;SDS011;47592;45.904;8.978;2023-06-14T00:45:27;9.57;;;6.53;;
61685;SDS011;47592;45.904;8.978;2023-06-14T00:47:53;10.83;;;7.00;;
61685;SDS011;47592;45.904;8.978;2023-06-14T00:50:20;9.48;;;6.72;;
61685;SDS011;47592;45.904;8.978;2023-06-14T00:52:45;8.90;;;6.75;;
61685;SDS011;47592;45.904;8.978;2023-06-14T00:55:11;9.70;;;6.93;;
61685;SDS011;47592;45.904;8.978;2023-06-14T00:57:36;9.43;;;6.75;;
61685;SDS011;47592;45.904;8.978;2023-06-14T01:00:02;9.32;;;6.63;;
61685;SDS011;47592;45.904;8.978;2023-06-14T01:02:29;9.40;;;6.07;;
61685;SDS011;47592;45.904;8.978;2023-06-14T01:04:57;7.97;;;6.00;;
61685;SDS011;47592;45.904;8.978;2023-06-14T01:14:42;8.90;;;5.77;;
61685;SDS011;47592;45.904;8.978;2023-06-14T01:17:08;9.55;;;5.28;;
61685;SDS011;47592;45.904;8.978;2023-06-14T01:19:41;8.93;;;5.90;;
61685;SDS011;47592;45.904;8.978;2023-06-14T01:22:07;10.27;;;7.47;;
61685;SDS011;47592;45.904;8.978;2023-06-14T01:24:33;9.98;;;7.93;;
61685;SDS011;47592;45.904;8.978;2023-06-14T01:26:59;11.75;;;9.15;;
61685;SDS011;47592;45.904;8.978;2023-06-14T01:29:25;15.82;;;12.25;;
61685;SDS011;47592;45.904;8.978;2023-06-14T01:31:55;16.30;;;12.95;;
61685;SDS011;47592;45.904;8.978;2023-06-14T01:34:21;18.65;;;14.70;;
61685;SDS011;47592;45.904;8.978;2023-06-14T01:36:46;18.33;;;14.50;;
61685;SDS011;47592;45.904;8.978;2023-06-14T01:39:14;18.25;;;14.93;;
61685;SDS011;47592;45.904;8.978;2023-06-14T01:41:42;17.88;;;14.77;;
61685;SDS011;47592;45.904;8.978;2023-06-14T01:44:09;17.42;;;14.80;;
61685;SDS011;47592;45.904;8.978;2023-06-14T01:46:35;16.55;;;14.25;;
61685;SDS011;47592;45.904;8.978;2023-06-14T01:49:01;18.15;;;14.35;;
61685;SDS011;47592;45.904;8.978;2023-06-14T01:51:27;16.05;;;13.43;;
61685;SDS011;47592;45.904;8.978;2023-06-14T01:53:52;16.50;;;14.20;;
61685;SDS011;47592;45.904;8.978;2023-06-14T01:56:20;16.92;;;13.65;;
61685;SDS011;47592;45.904;8.978;2023-06-14T01:58:47;16.35;;;13.70;;
61685;SDS011;47592;45.904;8.978;2023-06-14T02:01:13;15.38;;;12.70;;
61685;SDS011;47592;45.904;8.978;2023-06-14T02:03:41;14.77;;;11.93;;
61685;SDS011;47592;45.904;8.978;2023-06-14T02:06:07;12.98;;;10.50;;
61685;SDS011;47592;45.904;8.978;2023-06-14T02:08:32;13.13;;;10.10;;
61685;SDS011;47592;45.904;8.978;2023-06-14T02:10:57;12.68;;;9.98;;
61685;SDS011;47592;45.904;8.978;2023-06-14T02:13:25;12.90;;;9.05;;
61685;SDS011;47592;45.904;8.978;2023-06-14T02:15:52;11.30;;;8.55;;
61685;SDS011;47592;45.904;8.978;2023-06-14T02:18:19;11.98;;;8.57;;
61685;SDS011;47592;45.904;8.978;2023-06-14T02:20:44;11.63;;;8.98;;
61685;SDS011;47592;45.904;8.978;2023-06-14T02:23:10;10.47;;;7.77;;
61685;SDS011;47592;45.904;8.978;2023-06-14T02:25:35;10.48;;;7.45;;
61685;SDS011;47592;45.904;8.978;2023-06-14T02:28:00;9.27;;;7.20;;
61685;SDS011;47592;45.904;8.978;2023-06-14T02:30:25;8.60;;;6.03;;
61685;SDS011;47592;45.904;8.978;2023-06-14T02:32:51;9.80;;;6.38;;
61685;SDS011;47592;45.904;8.978;2023-06-14T02:35:16;7.87;;;5.77;;
61685;SDS011;47592;45.904;8.978;2023-06-14T02:37:41;8.97;;;6.43;;
61685;SDS011;47592;45.904;8.978;2023-06-14T02:40:07;8.93;;;6.68;;
61685;SDS011;47592;45.904;8.978;2023-06-14T02:42:35;10.60;;;7.00;;
61685;SDS011;47592;45.904;8.978;2023-06-14T02:45:01;10.53;;;7.33;;
61685;SDS011;47592;45.904;8.978;2023-06-14T02:47:27;10.82;;;7.30;;
61685;SDS011;47592;45.904;8.978;2023-06-14T02:49:52;10.35;;;7.63;;
61685;SDS011;47592;45.904;8.978;2023-06-14T02:52:18;9.95;;;7.00;;
61685;SDS011;47592;45.904;8.978;2023-06-14T02:54:45;11.40;;;7.57;;
61685;SDS011;47592;45.904;8.978;2023-06-14T02:57:12;11.32;;;8.45;;
61685;SDS011;47592;45.904;8.978;2023-06-14T02:59:37;10.25;;;8.38;;
61685;SDS011;47592;45.904;8.978;2023-06-14T03:02:02;11.20;;;8.07;;
61685;SDS011;47592;45.904;8.978;2023-06-14T03:04:30;11.73;;;9.10;;
61685;SDS011;47592;45.904;8.978;2023-06-14T03:06:59;11.23;;;8.63;;
61685;SDS011;47592;45.904;8.978;2023-06-14T03:09:34;10.82;;;8.50;;
61685;SDS011;47592;45.904;8.978;2023-06-14T03:11:59;11.40;;;8.57;;
61685;SDS011;47592;45.904;8.978;2023-06-14T03:14:28;11.98;;;8.60;;
61685;SDS011;47592;45.904;8.978;2023-06-14T03:16:54;12.63;;;8.88;;
61685;SDS011;47592;45.904;8.978;2023-06-14T03:19:21;11.43;;;9.05;;
61685;SDS011;47592;45.904;8.978;2023-06-14T03:21:47;11.05;;;8.05;;
61685;SDS011;47592;45.904;8.978;2023-06-14T03:24:12;10.52;;;8.18;;
61685;SDS011;47592;45.904;8.978;2023-06-14T03:26:37;11.27;;;8.40;;
61685;SDS011;47592;45.904;8.978;2023-06-14T03:29:05;11.75;;;8.43;;
61685;SDS011;47592;45.904;8.978;2023-06-14T03:31:34;10.95;;;8.68;;
61685;SDS011;47592;45.904;8.978;2023-06-14T03:34:00;11.13;;;8.63;;
61685;SDS011;47592;45.904;8.978;2023-06-14T03:36:25;12.52;;;8.20;;
61685;SDS011;47592;45.904;8.978;2023-06-14T03:38:50;12.10;;;8.65;;
61685;SDS011;47592;45.904;8.978;2023-06-14T03:41:16;11.70;;;8.50;;
61685;SDS011;47592;45.904;8.978;2023-06-14T03:43:41;12.67;;;9.00;;
61685;SDS011;47592;45.904;8.978;2023-06-14T03:46:08;11.00;;;8.10;;
61685;SDS011;47592;45.904;8.978;2023-06-14T03:48:34;11.90;;;9.07;;
61685;SDS011;47592;45.904;8.978;2023-06-14T03:51:01;10.43;;;8.37;;
61685;SDS011;47592;45.904;8.978;2023-06-14T03:53:27;11.40;;;8.88;;
61685;SDS011;47592;45.904;8.978;2023-06-14T03:55:56;12.13;;;8.57;;
61685;SDS011;47592;45.904;8.978;2023-06-14T03:58:25;11.15;;;8.57;;
61685;SDS011;47592;45.904;8.978;2023-06-14T04:00:50;12.30;;;8.53;;
61685;SDS011;47592;45.904;8.978;2023-06-14T04:03:15;11.60;;;8.63;;
61685;SDS011;47592;45.904;8.978;2023-06-14T04:05:43;11.57;;;8.80;;
61685;SDS011;47592;45.904;8.978;2023-06-14T04:08:09;11.87;;;9.17;;
61685;SDS011;47592;45.904;8.978;2023-06-14T04:10:35;12.18;;;9.48;;
61685;SDS011;47592;45.904;8.978;2023-06-14T04:13:00;12.70;;;8.75;;
61685;SDS011;47592;45.904;8.978;2023-06-14T04:15:25;11.70;;;9.17;;
61685;SDS011;47592;45.904;8.978;2023-06-14T04:17:53;12.02;;;9.10;;
61685;SDS011;47592;45.904;8.978;2023-06-14T04:20:22;11.77;;;9.50;;
61685;SDS011;47592;45.904;8.978;2023-06-14T04:22:50;11.20;;;8.85;;
61685;SDS011;47592;45.904;8.978;2023-06-14T04:25:15;12.07;;;8.18;;
61685;SDS011;47592;45.904;8.978;2023-06-14T04:27:40;11.38;;;8.77;;
61685;SDS011;47592;45.904;8.978;2023-06-14T04:30:09;11.10;;;8.43;;
61685;SDS011;47592;45.904;8.978;2023-06-14T04:32:36;11.32;;;8.27;;
61685;SDS011;47592;45.904;8.978;2023-06-14T04:35:06;12.00;;;8.90;;
61685;SDS011;47592;45.904;8.978;2023-06-14T04:37:31;11.05;;;8.10;;
61685;SDS011;47592;45.904;8.978;2023-06-14T04:40:01;10.95;;;8.38;;
61685;SDS011;47592;45.904;8.978;2023-06-14T04:42:33;10.77;;;8.73;;
61685;SDS011;47592;45.904;8.978;2023-06-14T04:45:04;10.32;;;7.90;;
61685;SDS011;47592;45.904;8.978;2023-06-14T04:47:29;12.90;;;8.90;;
61685;SDS011;47592;45.904;8.978;2023-06-14T04:49:57;10.13;;;7.82;;
61685;SDS011;47592;45.904;8.978;2023-06-14T04:52:22;10.52;;;8.32;;
61685;SDS011;47592;45.904;8.978;2023-06-14T04:54:51;10.98;;;8.52;;
61685;SDS011;47592;45.904;8.978;2023-06-14T04:57:17;10.15;;;7.88;;
61685;SDS011;47592;45.904;8.978;2023-06-14T05:02:22;12.73;;;8.70;;
61685;SDS011;47592;45.904;8.978;2023-06-14T05:04:48;11.95;;;8.45;;
61685;SDS011;47592;45.904;8.978;2023-06-14T05:07:13;10.77;;;7.30;;
61685;SDS011;47592;45.904;8.978;2023-06-14T05:09:39;10.48;;;8.20;;
61685;SDS011;47592;45.904;8.978;2023-06-14T05:12:04;9.40;;;7.05;;
61685;SDS011;47592;45.904;8.978;2023-06-14T05:14:33;9.90;;;7.25;;
61685;SDS011;47592;45.904;8.978;2023-06-14T05:16:58;9.98;;;7.57;;
61685;SDS011;47592;45.904;8.978;2023-06-14T05:19:24;9.75;;;6.82;;
61685;SDS011;47592;45.904;8.978;2023-06-14T05:21:50;11.23;;;7.38;;
61685;SDS011;47592;45.904;8.978;2023-06-14T05:24:15;8.88;;;6.65;;
61685;SDS011;47592;45.904;8.978;2023-06-14T05:26:42;8.45;;;6.82;;
61685;SDS011;47592;45.904;8.978;2023-06-14T05:29:08;9.70;;;6.78;;
61685;SDS011;47592;45.904;8.978;2023-06-14T05:31:33;8.95;;;6.78;;
61685;SDS011;47592;45.904;8.978;2023-06-14T05:33:59;9.48;;;7.07;;
61685;SDS011;47592;45.904;8.978;2023-06-14T05:36:25;7.53;;;5.22;;
61685;SDS011;47592;45.904;8.978;2023-06-14T05:38:55;8.38;;;4.72;;
61685;SDS011;47592;45.904;8.978;2023-06-14T05:41:28;7.13;;;4.40;;
61685;SDS011;47592;45.904;8.978;2023-06-14T05:43:56;9.33;;;4.73;;
61685;SDS011;47592;45.904;8.978;2023-06-14T05:46:22;6.88;;;4.68;;
61685;SDS011;47592;45.904;8.978;2023-06-14T05:48:49;6.70;;;4.55;;
61685;SDS011;47592;45.904;8.978;2023-06-14T05:51:17;7.53;;;4.15;;
61685;SDS011;47592;45.904;8.978;2023-06-14T05:53:48;6.30;;;4.30;;
61685;SDS011;47592;45.904;8.978;2023-06-14T05:56:14;6.60;;;4.43;;
61685;SDS011;47592;45.904;8.978;2023-06-14T05:58:39;6.93;;;4.43;;
61685;SDS011;47592;45.904;8.978;2023-06-14T06:01:05;6.78;;;4.57;;
61685;SDS011;47592;45.904;8.978;2023-06-14T06:03:30;6.75;;;4.07;;
61685;SDS011;47592;45.904;8.978;2023-06-14T06:05:56;6.13;;;3.67;;
61685;SDS011;47592;45.904;8.978;2023-06-14T06:08:23;6.50;;;4.38;;
61685;SDS011;47592;45.904;8.978;2023-06-14T06:10:52;7.68;;;4.60;;
61685;SDS011;47592;45.904;8.978;2023-06-14T06:13:19;6.73;;;4.17;;
61685;SDS011;47592;45.904;8.978;2023-06-14T06:15:47;7.25;;;4.03;;
61685;SDS011;47592;45.904;8.978;2023-06-14T06:18:15;6.25;;;3.95;;
61685;SDS011;47592;45.904;8.978;2023-06-14T06:20:42;6.55;;;4.20;;
61685;SDS011;47592;45.904;8.978;2023-06-14T06:23:09;6.15;;;3.85;;
61685;SDS011;47592;45.904;8.978;2023-06-14T06:25:34;6.28;;;3.90;;
61685;SDS011;47592;45.904;8.978;2023-06-14T06:28:04;6.75;;;4.28;;
61685;SDS011;47592;45.904;8.978;2023-06-14T06:30:32;6.55;;;4.10;;
61685;SDS011;47592;45.904;8.978;2023-06-14T06:32:57;7.03;;;3.92;;
61685;SDS011;47592;45.904;8.978;2023-06-14T06:35:22;6.32;;;3.80;;
61685;SDS011;47592;45.904;8.978;2023-06-14T06:37:48;6.03;;;4.00;;
61685;SDS011;47592;45.904;8.978;2023-06-14T06:40:13;6.85;;;4.30;;
61685;SDS011;47592;45.904;8.978;2023-06-14T06:42:39;5.63;;;3.53;;
61685;SDS011;47592;45.904;8.978;2023-06-14T06:45:04;5.88;;;3.70;;
61685;SDS011;47592;45.904;8.978;2023-06-14T06:47:30;5.97;;;3.75;;
61685;SDS011;47592;45.904;8.978;2023-06-14T06:49:57;6.28;;;3.80;;
61685;SDS011;47592;45.904;8.978;2023-06-14T06:52:23;5.90;;;3.90;;
61685;SDS011;47592;45.904;8.978;2023-06-14T06:54:48;6.00;;;3.53;;
61685;SDS011;47592;45.904;8.978;2023-06-14T06:57:14;5.60;;;3.60;;
61685;SDS011;47592;45.904;8.978;2023-06-14T06:59:39;7.20;;;4.20;;
61685;SDS011;47592;45.904;8.978;2023-06-14T07:02:07;6.43;;;3.67;;
61685;SDS011;47592;45.904;8.978;2023-06-14T07:04:32;6.95;;;3.80;;
61685;SDS011;47592;45.904;8.978;2023-06-14T07:07:00;7.03;;;3.22;;
61685;SDS011;47592;45.904;8.978;2023-06-14T07:09:25;7.50;;;3.80;;
61685;SDS011;47592;45.904;8.978;2023-06-14T07:11:50;6.37;;;3.30;;
61685;SDS011;47592;45.904;8.978;2023-06-14T07:14:18;6.63;;;3.40;;
61685;SDS011;47592;45.904;8.978;2023-06-14T07:16:43;6.15;;;3.67;;
61685;SDS011;47592;45.904;8.978;2023-06-14T07:19:09;8.00;;;3.47;;
61685;SDS011;47592;45.904;8.978;2023-06-14T07:21:35;5.60;;;3.22;;
61685;SDS011;47592;45.904;8.978;2023-06-14T07:24:02;5.90;;;3.25;;
61685;SDS011;47592;45.904;8.978;2023-06-14T07:26:28;6.35;;;3.28;;
61685;SDS011;47592;45.904;8.978;2023-06-14T07:28:53;6.37;;;3.40;;
61685;SDS011;47592;45.904;8.978;2023-06-14T07:31:20;5.07;;;2.80;;
61685;SDS011;47592;45.904;8.978;2023-06-14T07:33:46;5.82;;;2.83;;
61685;SDS011;47592;45.904;8.978;2023-06-14T07:36:11;6.38;;;2.97;;
61685;SDS011;47592;45.904;8.978;2023-06-14T07:38:36;6.00;;;2.77;;
61685;SDS011;47592;45.904;8.978;2023-06-14T07:41:02;4.70;;;2.60;;
61685;SDS011;47592;45.904;8.978;2023-06-14T07:43:27;5.13;;;2.60;;
61685;SDS011;47592;45.904;8.978;2023-06-14T07:45:52;5.70;;;2.83;;
61685;SDS011;47592;45.904;8.978;2023-06-14T07:48:17;4.60;;;2.55;;
61685;SDS011;47592;45.904;8.978;2023-06-14T07:50:45;4.60;;;2.53;;
61685;SDS011;47592;45.904;8.978;2023-06-14T07:53:10;5.07;;;2.40;;
61685;SDS011;47592;45.904;8.978;2023-06-14T07:55:36;4.97;;;2.40;;
61685;SDS011;47592;45.904;8.978;2023-06-14T07:58:05;5.00;;;2.20;;
61685;SDS011;47592;45.904;8.978;2023-06-14T08:00:33;5.05;;;2.42;;
61685;SDS011;47592;45.904;8.978;2023-06-14T08:03:01;4.57;;;2.10;;
61685;SDS011;47592;45.904;8.978;2023-06-14T08:05:26;4.93;;;2.58;;
61685;SDS011;47592;45.904;8.978;2023-06-14T08:07:52;5.78;;;3.30;;
61685;SDS011;47592;45.904;8.978;2023-06-14T08:10:18;5.78;;;3.42;;
61685;SDS011;47592;45.904;8.978;2023-06-14T08:12:43;5.35;;;3.08;;
61685;SDS011;47592;45.904;8.978;2023-06-14T08:15:09;6.18;;;3.00;;
61685;SDS011;47592;45.904;8.978;2023-06-14T08:17:34;6.45;;;3.00;;
61685;SDS011;47592;45.904;8.978;2023-06-14T08:20:00;5.25;;;2.95;;
61685;SDS011;47592;45.904;8.978;2023-06-14T08:22:25;6.47;;;3.00;;
61685;SDS011;47592;45.904;8.978;2023-06-14T08:24:53;5.63;;;3.45;;
61685;SDS011;47592;45.904;8.978;2023-06-14T08:27:19;5.13;;;3.15;;
61685;SDS011;47592;45.904;8.978;2023-06-14T08:29:44;5.93;;;3.20;;
61685;SDS011;47592;45.904;8.978;2023-06-14T08:32:09;6.05;;;2.90;;
61685;SDS011;47592;45.904;8.978;2023-06-14T08:34:35;6.65;;;2.88;;
61685;SDS011;47592;45.904;8.978;2023-06-14T08:37:03;6.20;;;3.07;;
61685;SDS011;47592;45.904;8.978;2023-06-14T08:39:28;4.90;;;2.75;;
61685;SDS011;47592;45.904;8.978;2023-06-14T08:41:53;5.13;;;2.60;;
61685;SDS011;47592;45.904;8.978;2023-06-14T08:44:19;4.60;;;2.50;;
61685;SDS011;47592;45.904;8.978;2023-06-14T08:46:49;4.68;;;2.60;;
61685;SDS011;47592;45.904;8.978;2023-06-14T08:49:16;4.63;;;2.63;;
61685;SDS011;47592;45.904;8.978;2023-06-14T08:51:41;6.22;;;2.42;;
61685;SDS011;47592;45.904;8.978;2023-06-14T08:54:08;6.38;;;2.33;;
61685;SDS011;47592;45.904;8.978;2023-06-14T08:56:37;5.70;;;2.17;;
61685;SDS011;47592;45.904;8.978;2023-06-14T08:59:02;4.22;;;2.20;;
61685;SDS011;47592;45.904;8.978;2023-06-14T09:01:37;5.80;;;2.63;;
61685;SDS011;47592;45.904;8.978;2023-06-14T09:04:03;4.72;;;2.70;;
61685;SDS011;47592;45.904;8.978;2023-06-14T09:06:32;5.93;;;2.70;;
61685;SDS011;47592;45.904;8.978;2023-06-14T09:08:58;6.07;;;2.47;;
61685;SDS011;47592;45.904;8.978;2023-06-14T09:11:23;5.47;;;2.33;;
61685;SDS011;47592;45.904;8.978;2023-06-14T09:13:48;5.30;;;2.53;;
61685;SDS011;47592;45.904;8.978;2023-06-14T09:16:14;4.72;;;2.38;;
61685;SDS011;47592;45.904;8.978;2023-06-14T09:18:43;7.03;;;2.37;;
61685;SDS011;47592;45.904;8.978;2023-06-14T09:21:09;5.88;;;2.47;;
61685;SDS011;47592;45.904;8.978;2023-06-14T09:23:38;5.00;;;2.30;;
61685;SDS011;47592;45.904;8.978;2023-06-14T09:26:11;6.88;;;2.47;;
61685;SDS011;47592;45.904;8.978;2023-06-14T09:28:40;6.40;;;2.38;;
61685;SDS011;47592;45.904;8.978;2023-06-14T09:31:06;5.75;;;2.30;;
61685;SDS011;47592;45.904;8.978;2023-06-14T09:33:33;4.72;;;2.42;;
61685;SDS011;47592;45.904;8.978;2023-06-14T09:35:59;4.57;;;2.22;;
61685;SDS011;47592;45.904;8.978;2023-06-14T09:38:26;6.72;;;2.88;;
61685;SDS011;47592;45.904;8.978;2023-06-14T09:40:51;4.93;;;2.17;;
61685;SDS011;47592;45.904;8.978;2023-06-14T09:43:17;5.25;;;2.38;;
61685;SDS011;47592;45.904;8.978;2023-06-14T09:45:43;6.18;;;2.42;;
61685;SDS011;47592;45.904;8.978;2023-06-14T09:48:10;6.35;;;2.50;;
61685;SDS011;47592;45.904;8.978;2023-06-14T09:50:36;5.07;;;2.67;;
61685;SDS011;47592;45.904;8.978;2023-06-14T09:53:10;5.10;;;2.95;;
61685;SDS011;47592;45.904;8.978;2023-06-14T09:55:37;5.30;;;2.80;;
61685;SDS011;47592;45.904;8.978;2023-06-14T09:58:04;4.93;;;2.72;;
61685;SDS011;47592;45.904;8.978;2023-06-14T10:00:32;5.88;;;3.25;;
61685;SDS011;47592;45.904;8.978;2023-06-14T10:03:00;5.30;;;3.03;;
61685;SDS011;47592;45.904;8.978;2023-06-14T10:05:26;4.90;;;2.70;;
61685;SDS011;47592;45.904;8.978;2023-06-14T10:07:55;6.50;;;3.20;;
61685;SDS011;47592;45.904;8.978;2023-06-14T10:10:22;5.18;;;3.13;;
61685;SDS011;47592;45.904;8.978;2023-06-14T10:12:50;5.53;;;2.80;;
61685;SDS011;47592;45.904;8.978;2023-06-14T10:16:03;4.95;;;3.00;;
61685;SDS011;47592;45.904;8.978;2023-06-14T10:18:05;4.95;;;2.95;;
61685;SDS011;47592;45.904;8.978;2023-06-14T10:20:41;5.32;;;2.58;;
61685;SDS011;47592;45.904;8.978;2023-06-14T10:25:38;5.35;;;3.33;;
61685;SDS011;47592;45.904;8.978;2023-06-14T10:28:14;5.28;;;3.10;;
61685;SDS011;47592;45.904;8.978;2023-06-14T10:30:40;5.95;;;3.08;;
61685;SDS011;47592;45.904;8.978;2023-06-14T10:33:28;6.68;;;3.08;;
61685;SDS011;47592;45.904;8.978;2023-06-14T10:38:37;5.43;;;3.00;;
61685;SDS011;47592;45.904;8.978;2023-06-14T10:41:05;5.30;;;3.03;;
61685;SDS011;47592;45.904;8.978;2023-06-14T10:43:31;5.97;;;3.13;;
61685;SDS011;47592;45.904;8.978;2023-06-14T10:46:18;5.80;;;3.28;;
61685;SDS011;47592;45.904;8.978;2023-06-14T10:48:45;5.30;;;3.08;;
61685;SDS011;47592;45.904;8.978;2023-06-14T10:51:20;6.82;;;3.30;;
61685;SDS011;47592;45.904;8.978;2023-06-14T10:53:49;7.00;;;3.50;;
61685;SDS011;47592;45.904;8.978;2023-06-14T10:56:27;5.72;;;3.08;;
61685;SDS011;47592;45.904;8.978;2023-06-14T10:58:58;5.40;;;3.45;;
61685;SDS011;47592;45.904;8.978;2023-06-14T11:01:37;6.03;;;3.17;;
61685;SDS011;47592;45.904;8.978;2023-06-14T11:06:28;7.13;;;3.67;;
61685;SDS011;47592;45.904;8.978;2023-06-14T11:11:38;5.65;;;3.70;;
61685;SDS011;47592;45.904;8.978;2023-06-14T11:14:09;4.80;;;3.00;;
61685;SDS011;47592;45.904;8.978;2023-06-14T11:16:34;5.55;;;3.30;;
61685;SDS011;47592;45.904;8.978;2023-06-14T11:19:00;5.43;;;2.90;;
61685;SDS011;47592;45.904;8.978;2023-06-14T11:21:31;5.75;;;3.25;;
61685;SDS011;47592;45.904;8.978;2023-06-14T11:24:00;7.70;;;3.35;;
61685;SDS011;47592;45.904;8.978;2023-06-14T11:28:54;6.65;;;3.63;;
61685;SDS011;47592;45.904;8.978;2023-06-14T11:31:20;6.20;;;3.43;;
61685;SDS011;47592;45.904;8.978;2023-06-14T11:33:49;6.53;;;3.27;;
61685;SDS011;47592;45.904;8.978;2023-06-14T11:38:42;6.50;;;3.95;;
61685;SDS011;47592;45.904;8.978;2023-06-14T11:41:09;6.47;;;3.53;;
61685;SDS011;47592;45.904;8.978;2023-06-14T11:43:37;7.28;;;3.45;;
61685;SDS011;47592;45.904;8.978;2023-06-14T11:46:02;6.45;;;3.72;;
61685;SDS011;47592;45.904;8.978;2023-06-14T11:48:42;6.20;;;3.83;;
61685;SDS011;47592;45.904;8.978;2023-06-14T11:51:08;5.05;;;3.28;;
61685;SDS011;47592;45.904;8.978;2023-06-14T11:53:33;10.20;;;3.92;;
61685;SDS011;47592;45.904;8.978;2023-06-14T11:56:01;5.95;;;3.60;;
61685;SDS011;47592;45.904;8.978;2023-06-14T11:58:26;6.60;;;3.70;;
61685;SDS011;47592;45.904;8.978;2023-06-14T12:00:52;7.50;;;4.00;;
61685;SDS011;47592;45.904;8.978;2023-06-14T12:03:22;6.28;;;3.90;;
61685;SDS011;47592;45.904;8.978;2023-06-14T12:05:47;6.50;;;3.95;;
61685;SDS011;47592;45.904;8.978;2023-06-14T12:08:12;6.97;;;3.80;;
61685;SDS011;47592;45.904;8.978;2023-06-14T12:10:42;6.72;;;3.50;;
61685;SDS011;47592;45.904;8.978;2023-06-14T12:13:10;5.80;;;3.83;;
61685;SDS011;47592;45.904;8.978;2023-06-14T12:15:38;6.70;;;3.90;;
61685;SDS011;47592;45.904;8.978;2023-06-14T12:18:06;6.53;;;3.92;;
61685;SDS011;47592;45.904;8.978;2023-06-14T12:20:33;7.00;;;3.58;;
61685;SDS011;47592;45.904;8.978;2023-06-14T12:23:04;6.75;;;3.45;;
61685;SDS011;47592;45.904;8.978;2023-06-14T12:25:33;6.82;;;3.20;;
61685;SDS011;47592;45.904;8.978;2023-06-14T12:27:59;7.95;;;3.22;;
61685;SDS011;47592;45.904;8.978;2023-06-14T12:30:24;5.82;;;3.65;;
61685;SDS011;47592;45.904;8.978;2023-06-14T12:32:50;7.53;;;4.10;;
61685;SDS011;47592;45.904;8.978;2023-06-14T12:35:16;6.38;;;3.60;;
61685;SDS011;47592;45.904;8.978;2023-06-14T12:37:42;9.02;;;3.78;;
61685;SDS011;47592;45.904;8.978;2023-06-14T12:40:07;5.25;;;3.45;;
61685;SDS011;47592;45.904;8.978;2023-06-14T12:42:36;6.50;;;3.60;;
61685;SDS011;47592;45.904;8.978;2023-06-14T12:45:01;5.88;;;3.92;;
61685;SDS011;47592;45.904;8.978;2023-06-14T12:47:28;5.78;;;3.38;;
61685;SDS011;47592;45.904;8.978;2023-06-14T12:49:53;7.00;;;3.30;;
61685;SDS011;47592;45.904;8.978;2023-06-14T12:52:18;6.07;;;3.30;;
61685;SDS011;47592;45.904;8.978;2023-06-14T12:54:43;7.40;;;3.57;;
61685;SDS011;47592;45.904;8.978;2023-06-14T12:57:09;6.38;;;3.53;;
61685;SDS011;47592;45.904;8.978;2023-06-14T12:59:36;5.78;;;3.72;;
61685;SDS011;47592;45.904;8.978;2023-06-14T13:02:14;7.05;;;3.67;;
61685;SDS011;47592;45.904;8.978;2023-06-14T13:04:40;8.23;;;3.88;;
61685;SDS011;47592;45.904;8.978;2023-06-14T13:07:07;6.32;;;3.83;;
61685;SDS011;47592;45.904;8.978;2023-06-14T13:09:33;6.55;;;3.95;;
61685;SDS011;47592;45.904;8.978;2023-06-14T13:11:58;7.20;;;3.90;;
61685;SDS011;47592;45.904;8.978;2023-06-14T13:14:25;7.67;;;4.20;;
61685;SDS011;47592;45.904;8.978;2023-06-14T13:16:51;7.88;;;3.88;;
61685;SDS011;47592;45.904;8.978;2023-06-14T13:19:16;5.90;;;3.80;;
61685;SDS011;47592;45.904;8.978;2023-06-14T13:21:44;6.50;;;3.75;;
61685;SDS011;47592;45.904;8.978;2023-06-14T13:24:10;7.43;;;4.10;;
61685;SDS011;47592;45.904;8.978;2023-06-14T13:26:35;8.23;;;4.27;;
61685;SDS011;47592;45.904;8.978;2023-06-14T13:29:00;5.70;;;3.47;;
61685;SDS011;47592;45.904;8.978;2023-06-14T13:31:25;6.47;;;3.85;;
61685;SDS011;47592;45.904;8.978;2023-06-14T13:33:51;9.43;;;3.87;;
61685;SDS011;47592;45.904;8.978;2023-06-14T13:36:18;8.18;;;3.83;;
61685;SDS011;47592;45.904;8.978;2023-06-14T13:38:44;6.63;;;4.10;;
61685;SDS011;47592;45.904;8.978;2023-06-14T13:41:11;7.88;;;3.90;;
61685;SDS011;47592;45.904;8.978;2023-06-14T13:43:39;6.00;;;3.87;;
61685;SDS011;47592;45.904;8.978;2023-06-14T13:46:09;6.32;;;3.80;;
61685;SDS011;47592;45.904;8.978;2023-06-14T13:48:34;7.45;;;3.80;;
61685;SDS011;47592;45.904;8.978;2023-06-14T13:51:00;8.07;;;3.57;;
61685;SDS011;47592;45.904;8.978;2023-06-14T13:53:29;6.78;;;4.00;;
61685;SDS011;47592;45.904;8.978;2023-06-14T13:55:54;5.70;;;3.72;;
61685;SDS011;47592;45.904;8.978;2023-06-14T13:58:19;7.10;;;3.40;;
61685;SDS011;47592;45.904;8.978;2023-06-14T14:00:44;6.10;;;3.70;;
61685;SDS011;47592;45.904;8.978;2023-06-14T14:03:10;7.43;;;3.57;;
61685;SDS011;47592;45.904;8.978;2023-06-14T14:05:36;6.97;;;3.45;;
61685;SDS011;47592;45.904;8.978;2023-06-14T14:08:01;6.00;;;3.70;;
61685;SDS011;47592;45.904;8.978;2023-06-14T14:10:27;5.90;;;3.58;;
61685;SDS011;47592;45.904;8.978;2023-06-14T14:12:52;6.88;;;3.63;;
61685;SDS011;47592;45.904;8.978;2023-06-14T14:15:18;7.97;;;3.78;;
61685;SDS011;47592;45.904;8.978;2023-06-14T14:17:43;6.20;;;3.78;;
61685;SDS011;47592;45.904;8.978;2023-06-14T14:20:08;6.38;;;3.50;;
61685;SDS011;47592;45.904;8.978;2023-06-14T14:22:34;5.82;;;3.60;;
61685;SDS011;47592;45.904;8.978;2023-06-14T14:24:59;6.40;;;3.67;;
61685;SDS011;47592;45.904;8.978;2023-06-14T14:27:25;5.75;;;4.00;;
61685;SDS011;47592;45.904;8.978;2023-06-14T14:29:50;5.73;;;3.87;;
61685;SDS011;47592;45.904;8.978;2023-06-14T14:32:15;7.77;;;3.70;;
61685;SDS011;47592;45.904;8.978;2023-06-14T14:34:40;6.50;;;3.23;;
61685;SDS011;47592;45.904;8.978;2023-06-14T14:37:06;5.60;;;3.60;;
61685;SDS011;47592;45.904;8.978;2023-06-14T14:39:31;5.57;;;3.63;;
61685;SDS011;47592;45.904;8.978;2023-06-14T14:41:56;6.68;;;3.53;;
61685;SDS011;47592;45.904;8.978;2023-06-14T14:44:22;5.83;;;3.53;;
61685;SDS011;47592;45.904;8.978;2023-06-14T14:46:50;5.77;;;3.43;;
61685;SDS011;47592;45.904;8.978;2023-06-14T14:49:15;5.60;;;3.58;;
61685;SDS011;47592;45.904;8.978;2023-06-14T14:51:40;5.50;;;3.50;;
61685;SDS011;47592;45.904;8.978;2023-06-14T14:54:08;8.15;;;4.07;;
61685;SDS011;47592;45.904;8.978;2023-06-14T14:56:33;5.85;;;3.60;;
61685;SDS011;47592;45.904;8.978;2023-06-14T14:59:00;5.97;;;3.50;;
61685;SDS011;47592;45.904;8.978;2023-06-14T15:01:25;6.15;;;3.47;;
61685;SDS011;47592;45.904;8.978;2023-06-14T15:03:53;6.30;;;3.53;;
61685;SDS011;47592;45.904;8.978;2023-06-14T15:06:18;6.23;;;3.67;;